sensor_id;sensor_type;location;lat;lon;timestamp;P1;durP1;ratioP1;P2;durP2;ratioP2
22650;SDS011;11492;42.646;23.400;2024-02-21T00:01:03;8.45;;;6.10;;
22650;SDS011;11492;42.646;23.400;2024-02-21T00:03:29;9.85;;;6.97;;
22650;SDS011;11492;42.646;23.400;2024-02-21T00:05:55;11.07;;;7.40;;
22650;SDS011;11492;42.646;23.400;2024-02-21T00:08:21;10.43;;;6.88;;
22650;SDS011;11492;42.646;23.400;2024-02-21T00:10:47;11.23;;;6.88;;
22650;SDS011;11492;42.646;23.400;2024-02-21T00:13:13;14.77;;;7.45;;
22650;SDS011;11492;42.646;23.400;2024-02-21T00:15:39;10.57;;;6.93;;
22650;SDS011;11492;42.646;23.400;2024-02-21T00:18:05;10.85;;;6.80;;
22650;SDS011;11492;42.646;23.400;2024-02-21T00:20:30;14.07;;;7.03;;
22650;SDS011;11492;42.646;23.400;2024-02-21T00:22:56;10.57;;;7.22;;
22650;SDS011;11492;42.646;23.400;2024-02-21T00:25:22;9.65;;;6.80;;
22650;SDS011;11492;42.646;23.400;2024-02-21T00:27:48;12.82;;;7.45;;
22650;SDS011;11492;42.646;23.400;2024-02-21T00:30:13;11.48;;;6.38;;
22650;SDS011;11492;42.646;23.400;2024-02-21T00:32:39;10.98;;;6.95;;
22650;SDS011;11492;42.646;23.400;2024-02-21T00:35:05;10.27;;;7.05;;
22650;SDS011;11492;42.646;23.400;2024-02-21T00:37:31;10.73;;;7.07;;
22650;SDS011;11492;42.646;23.400;2024-02-21T00:39:57;11.45;;;6.88;;
22650;SDS011;11492;42.646;23.400;2024-02-21T00:42:23;10.57;;;6.65;;
22650;SDS011;11492;42.646;23.400;2024-02-21T00:44:49;10.35;;;7.20;;
22650;SDS011;11492;42.646;23.400;2024-02-21T00:47:14;10.18;;;6.47;;
22650;SDS011;11492;42.646;23.400;2024-02-21T00:49:40;12.75;;;6.85;;
22650;SDS011;11492;42.646;23.400;2024-02-21T00:52:06;10.90;;;7.25;;
22650;SDS011;11492;42.646;23.400;2024-02-21T00:54:32;10.88;;;6.95;;
22650;SDS011;11492;42.646;23.400;2024-02-21T00:56:58;9.25;;;6.30;;
22650;SDS011;11492;42.646;23.400;2024-02-21T00:59:23;8.60;;;6.13;;
22650;SDS011;11492;42.646;23.400;2024-02-21T01:01:49;9.63;;;6.32;;
22650;SDS011;11492;42.646;23.400;2024-02-21T01:04:15;11.30;;;6.25;;
22650;SDS011;11492;42.646;23.400;2024-02-21T01:06:41;8.52;;;5.97;;
22650;SDS011;11492;42.646;23.400;2024-02-21T01:09:10;8.18;;;5.60;;
22650;SDS011;11492;42.646;23.400;2024-02-21T01:11:36;7.80;;;5.60;;
22650;SDS011;11492;42.646;23.400;2024-02-21T01:14:02;9.25;;;6.38;;
22650;SDS011;11492;42.646;23.400;2024-02-21T01:16:28;8.60;;;5.75;;
22650;SDS011;11492;42.646;23.400;2024-02-21T01:18:53;10.18;;;6.05;;
22650;SDS011;11492;42.646;23.400;2024-02-21T01:21:19;9.05;;;6.20;;
22650;SDS011;11492;42.646;23.400;2024-02-21T01:23:45;9.23;;;6.13;;
22650;SDS011;11492;42.646;23.400;2024-02-21T01:26:11;9.45;;;6.20;;
22650;SDS011;11492;42.646;23.400;2024-02-21T01:28:40;8.65;;;6.18;;
22650;SDS011;11492;42.646;23.400;2024-02-21T01:31:05;8.38;;;6.13;;
22650;SDS011;11492;42.646;23.400;2024-02-21T01:33:31;9.52;;;6.63;;
22650;SDS011;11492;42.646;23.400;2024-02-21T01:36:03;8.85;;;6.40;;
22650;SDS011;11492;42.646;23.400;2024-02-21T01:38:29;9.50;;;6.70;;
22650;SDS011;11492;42.646;23.400;2024-02-21T01:40:55;9.73;;;6.60;;
22650;SDS011;11492;42.646;23.400;2024-02-21T01:43:21;10.07;;;6.68;;
22650;SDS011;11492;42.646;23.400;2024-02-21T01:45:50;8.73;;;6.05;;
22650;SDS011;11492;42.646;23.400;2024-02-21T01:48:21;10.68;;;7.18;;
22650;SDS011;11492;42.646;23.400;2024-02-21T01:50:51;8.70;;;6.30;;
22650;SDS011;11492;42.646;23.400;2024-02-21T01:53:29;8.77;;;6.38;;
22650;SDS011;11492;42.646;23.400;2024-02-21T01:55:58;9.68;;;7.07;;
22650;SDS011;11492;42.646;23.400;2024-02-21T01:58:24;10.18;;;6.75;;
22650;SDS011;11492;42.646;23.400;2024-02-21T02:00:50;10.00;;;6.30;;
22650;SDS011;11492;42.646;23.400;2024-02-21T02:03:16;10.57;;;6.57;;
22650;SDS011;11492;42.646;23.400;2024-02-21T02:05:45;11.70;;;7.15;;
22650;SDS011;11492;42.646;23.400;2024-02-21T02:08:16;11.60;;;7.57;;
22650;SDS011;11492;42.646;23.400;2024-02-21T02:10:44;11.15;;;6.60;;
22650;SDS011;11492;42.646;23.400;2024-02-21T02:13:11;11.10;;;7.18;;
22650;SDS011;11492;42.646;23.400;2024-02-21T02:15:40;9.02;;;6.70;;
22650;SDS011;11492;42.646;23.400;2024-02-21T02:18:07;11.00;;;7.10;;
22650;SDS011;11492;42.646;23.400;2024-02-21T02:20:33;10.57;;;7.70;;
22650;SDS011;11492;42.646;23.400;2024-02-21T02:23:00;11.00;;;7.93;;
22650;SDS011;11492;42.646;23.400;2024-02-21T02:25:48;11.07;;;8.20;;
22650;SDS011;11492;42.646;23.400;2024-02-21T02:28:18;11.55;;;8.18;;
22650;SDS011;11492;42.646;23.400;2024-02-21T02:30:44;11.55;;;8.73;;
22650;SDS011;11492;42.646;23.400;2024-02-21T02:33:09;14.57;;;9.48;;
22650;SDS011;11492;42.646;23.400;2024-02-21T02:35:35;14.88;;;9.63;;
22650;SDS011;11492;42.646;23.400;2024-02-21T02:38:02;15.25;;;10.45;;
22650;SDS011;11492;42.646;23.400;2024-02-21T02:40:28;16.77;;;10.90;;
22650;SDS011;11492;42.646;23.400;2024-02-21T02:42:55;16.58;;;10.95;;
22650;SDS011;11492;42.646;23.400;2024-02-21T02:45:21;18.08;;;12.07;;
22650;SDS011;11492;42.646;23.400;2024-02-21T02:50:20;17.13;;;11.10;;
22650;SDS011;11492;42.646;23.400;2024-02-21T02:52:46;17.20;;;11.43;;
22650;SDS011;11492;42.646;23.400;2024-02-21T02:55:12;19.17;;;11.98;;
22650;SDS011;11492;42.646;23.400;2024-02-21T02:57:37;17.42;;;11.25;;
22650;SDS011;11492;42.646;23.400;2024-02-21T03:00:04;19.00;;;12.00;;
22650;SDS011;11492;42.646;23.400;2024-02-21T03:02:32;19.15;;;11.35;;
22650;SDS011;11492;42.646;23.400;2024-02-21T03:04:57;19.63;;;11.73;;
22650;SDS011;11492;42.646;23.400;2024-02-21T03:07:24;17.65;;;11.30;;
22650;SDS011;11492;42.646;23.400;2024-02-21T03:09:50;17.98;;;12.45;;
22650;SDS011;11492;42.646;23.400;2024-02-21T03:12:17;19.02;;;11.73;;
22650;SDS011;11492;42.646;23.400;2024-02-21T03:14:53;18.85;;;12.45;;
22650;SDS011;11492;42.646;23.400;2024-02-21T03:17:19;24.25;;;15.13;;
22650;SDS011;11492;42.646;23.400;2024-02-21T03:19:44;18.70;;;12.02;;
22650;SDS011;11492;42.646;23.400;2024-02-21T03:22:10;18.48;;;12.32;;
22650;SDS011;11492;42.646;23.400;2024-02-21T03:24:36;21.88;;;13.45;;
22650;SDS011;11492;42.646;23.400;2024-02-21T03:27:01;22.13;;;14.32;;
22650;SDS011;11492;42.646;23.400;2024-02-21T03:29:27;20.63;;;13.65;;
22650;SDS011;11492;42.646;23.400;2024-02-21T03:31:53;19.60;;;12.80;;
22650;SDS011;11492;42.646;23.400;2024-02-21T03:34:18;20.35;;;13.07;;
22650;SDS011;11492;42.646;23.400;2024-02-21T03:36:44;17.65;;;11.20;;
22650;SDS011;11492;42.646;23.400;2024-02-21T03:39:10;19.40;;;12.20;;
22650;SDS011;11492;42.646;23.400;2024-02-21T03:41:35;20.38;;;12.80;;
22650;SDS011;11492;42.646;23.400;2024-02-21T03:44:01;24.90;;;14.10;;
22650;SDS011;11492;42.646;23.400;2024-02-21T03:46:27;17.23;;;12.65;;
22650;SDS011;11492;42.646;23.400;2024-02-21T03:48:53;32.33;;;18.83;;
22650;SDS011;11492;42.646;23.400;2024-02-21T03:51:19;26.63;;;16.75;;
22650;SDS011;11492;42.646;23.400;2024-02-21T03:53:44;18.92;;;12.65;;
22650;SDS011;11492;42.646;23.400;2024-02-21T03:56:10;19.77;;;12.50;;
22650;SDS011;11492;42.646;23.400;2024-02-21T03:58:36;18.40;;;13.05;;
22650;SDS011;11492;42.646;23.400;2024-02-21T04:01:02;21.00;;;13.00;;
22650;SDS011;11492;42.646;23.400;2024-02-21T04:03:29;22.25;;;13.65;;
22650;SDS011;11492;42.646;23.400;2024-02-21T04:05:56;20.27;;;13.55;;
22650;SDS011;11492;42.646;23.400;2024-02-21T04:08:22;19.77;;;13.23;;
22650;SDS011;11492;42.646;23.400;2024-02-21T04:10:48;23.17;;;14.40;;
22650;SDS011;11492;42.646;23.400;2024-02-21T04:13:14;21.65;;;14.30;;
22650;SDS011;11492;42.646;23.400;2024-02-21T04:15:40;23.05;;;14.48;;
22650;SDS011;11492;42.646;23.400;2024-02-21T04:18:05;20.10;;;14.05;;
22650;SDS011;11492;42.646;23.400;2024-02-21T04:20:31;23.90;;;13.25;;
22650;SDS011;11492;42.646;23.400;2024-02-21T04:22:57;23.48;;;14.65;;
22650;SDS011;11492;42.646;23.400;2024-02-21T04:25:23;24.30;;;13.95;;
22650;SDS011;11492;42.646;23.400;2024-02-21T04:27:49;21.73;;;14.13;;
22650;SDS011;11492;42.646;23.400;2024-02-21T04:30:15;24.63;;;15.27;;
22650;SDS011;11492;42.646;23.400;2024-02-21T04:32:41;22.90;;;14.75;;
22650;SDS011;11492;42.646;23.400;2024-02-21T04:35:07;22.65;;;14.00;;
22650;SDS011;11492;42.646;23.400;2024-02-21T04:37:34;78.97;;;41.90;;
22650;SDS011;11492;42.646;23.400;2024-02-21T04:39:59;45.90;;;24.83;;
22650;SDS011;11492;42.646;23.400;2024-02-21T04:42:25;27.55;;;16.67;;
22650;SDS011;11492;42.646;23.400;2024-02-21T04:44:51;28.33;;;16.90;;
22650;SDS011;11492;42.646;23.400;2024-02-21T04:47:17;26.23;;;17.00;;
22650;SDS011;11492;42.646;23.400;2024-02-21T04:49:44;31.83;;;20.23;;
22650;SDS011;11492;42.646;23.400;2024-02-21T04:52:11;22.77;;;15.45;;
22650;SDS011;11492;42.646;23.400;2024-02-21T04:54:37;25.48;;;15.25;;
22650;SDS011;11492;42.646;23.400;2024-02-21T04:57:03;26.75;;;15.70;;
22650;SDS011;11492;42.646;23.400;2024-02-21T04:59:29;24.65;;;15.30;;
22650;SDS011;11492;42.646;23.400;2024-02-21T05:01:55;28.70;;;15.38;;
22650;SDS011;11492;42.646;23.400;2024-02-21T05:04:20;27.30;;;14.75;;
22650;SDS011;11492;42.646;23.400;2024-02-21T05:06:46;26.83;;;16.65;;
22650;SDS011;11492;42.646;23.400;2024-02-21T05:09:12;25.17;;;15.98;;
22650;SDS011;11492;42.646;23.400;2024-02-21T05:11:38;26.95;;;16.88;;
22650;SDS011;11492;42.646;23.400;2024-02-21T05:14:04;28.02;;;17.40;;
22650;SDS011;11492;42.646;23.400;2024-02-21T05:16:30;24.85;;;16.45;;
22650;SDS011;11492;42.646;23.400;2024-02-21T05:18:56;27.60;;;16.98;;
22650;SDS011;11492;42.646;23.400;2024-02-21T05:21:22;27.13;;;17.25;;
22650;SDS011;11492;42.646;23.400;2024-02-21T05:23:49;29.35;;;17.27;;
22650;SDS011;11492;42.646;23.400;2024-02-21T05:26:21;27.35;;;16.77;;
22650;SDS011;11492;42.646;23.400;2024-02-21T05:28:48;27.05;;;17.08;;
22650;SDS011;11492;42.646;23.400;2024-02-21T05:31:15;27.05;;;17.65;;
22650;SDS011;11492;42.646;23.400;2024-02-21T05:33:42;33.95;;;19.77;;
22650;SDS011;11492;42.646;23.400;2024-02-21T05:36:09;53.92;;;25.80;;
22650;SDS011;11492;42.646;23.400;2024-02-21T05:38:34;58.83;;;28.50;;
22650;SDS011;11492;42.646;23.400;2024-02-21T05:41:00;58.35;;;29.08;;
22650;SDS011;11492;42.646;23.400;2024-02-21T05:43:26;56.83;;;28.63;;
22650;SDS011;11492;42.646;23.400;2024-02-21T05:45:52;71.05;;;29.02;;
22650;SDS011;11492;42.646;23.400;2024-02-21T05:48:18;55.70;;;28.58;;
22650;SDS011;11492;42.646;23.400;2024-02-21T05:50:43;51.58;;;26.88;;
22650;SDS011;11492;42.646;23.400;2024-02-21T05:53:09;48.88;;;27.63;;
22650;SDS011;11492;42.646;23.400;2024-02-21T05:55:36;47.80;;;25.45;;
22650;SDS011;11492;42.646;23.400;2024-02-21T05:58:02;50.88;;;25.60;;
22650;SDS011;11492;42.646;23.400;2024-02-21T06:00:28;47.40;;;24.40;;
22650;SDS011;11492;42.646;23.400;2024-02-21T06:02:54;40.22;;;21.45;;
22650;SDS011;11492;42.646;23.400;2024-02-21T06:05:20;37.13;;;21.60;;
22650;SDS011;11492;42.646;23.400;2024-02-21T06:07:46;38.63;;;22.42;;
22650;SDS011;11492;42.646;23.400;2024-02-21T06:10:12;36.65;;;21.58;;
22650;SDS011;11492;42.646;23.400;2024-02-21T06:12:37;36.63;;;18.48;;
22650;SDS011;11492;42.646;23.400;2024-02-21T06:15:03;27.92;;;16.60;;
22650;SDS011;11492;42.646;23.400;2024-02-21T06:17:29;30.52;;;17.15;;
22650;SDS011;11492;42.646;23.400;2024-02-21T06:19:55;31.02;;;17.58;;
22650;SDS011;11492;42.646;23.400;2024-02-21T06:22:21;31.30;;;17.98;;
22650;SDS011;11492;42.646;23.400;2024-02-21T06:24:46;29.45;;;16.73;;
22650;SDS011;11492;42.646;23.400;2024-02-21T06:27:12;32.92;;;16.63;;
22650;SDS011;11492;42.646;23.400;2024-02-21T06:29:39;30.38;;;16.50;;
22650;SDS011;11492;42.646;23.400;2024-02-21T06:32:05;36.67;;;17.02;;
22650;SDS011;11492;42.646;23.400;2024-02-21T06:34:31;30.20;;;18.08;;
22650;SDS011;11492;42.646;23.400;2024-02-21T06:36:57;34.38;;;18.35;;
22650;SDS011;11492;42.646;23.400;2024-02-21T06:39:22;35.15;;;18.55;;
22650;SDS011;11492;42.646;23.400;2024-02-21T06:41:48;33.78;;;18.77;;
22650;SDS011;11492;42.646;23.400;2024-02-21T06:44:16;39.13;;;20.13;;
22650;SDS011;11492;42.646;23.400;2024-02-21T06:46:42;33.70;;;20.05;;
22650;SDS011;11492;42.646;23.400;2024-02-21T06:49:08;33.88;;;20.98;;
22650;SDS011;11492;42.646;23.400;2024-02-21T06:51:33;44.05;;;22.70;;
22650;SDS011;11492;42.646;23.400;2024-02-21T06:54:00;40.10;;;21.73;;
22650;SDS011;11492;42.646;23.400;2024-02-21T06:56:26;44.67;;;24.73;;
22650;SDS011;11492;42.646;23.400;2024-02-21T06:58:57;39.80;;;22.67;;
22650;SDS011;11492;42.646;23.400;2024-02-21T07:01:24;42.42;;;23.05;;
22650;SDS011;11492;42.646;23.400;2024-02-21T07:03:50;40.13;;;23.35;;
22650;SDS011;11492;42.646;23.400;2024-02-21T07:06:15;38.60;;;21.95;;
22650;SDS011;11492;42.646;23.400;2024-02-21T07:08:41;39.70;;;21.67;;
22650;SDS011;11492;42.646;23.400;2024-02-21T07:11:07;40.47;;;22.58;;
22650;SDS011;11492;42.646;23.400;2024-02-21T07:13:32;39.13;;;21.70;;
22650;SDS011;11492;42.646;23.400;2024-02-21T07:15:58;43.45;;;22.05;;
22650;SDS011;11492;42.646;23.400;2024-02-21T07:18:24;37.38;;;21.27;;
22650;SDS011;11492;42.646;23.400;2024-02-21T07:20:52;39.97;;;21.25;;
22650;SDS011;11492;42.646;23.400;2024-02-21T07:23:18;38.65;;;21.00;;
22650;SDS011;11492;42.646;23.400;2024-02-21T07:25:44;35.45;;;21.00;;
22650;SDS011;11492;42.646;23.400;2024-02-21T07:28:10;39.78;;;20.85;;
22650;SDS011;11492;42.646;23.400;2024-02-21T07:30:36;36.53;;;20.80;;
22650;SDS011;11492;42.646;23.400;2024-02-21T07:33:01;39.92;;;21.27;;
22650;SDS011;11492;42.646;23.400;2024-02-21T07:35:27;43.53;;;20.58;;
22650;SDS011;11492;42.646;23.400;2024-02-21T07:37:53;39.95;;;23.50;;
22650;SDS011;11492;42.646;23.400;2024-02-21T07:40:18;38.58;;;22.02;;
22650;SDS011;11492;42.646;23.400;2024-02-21T07:42:44;40.75;;;21.92;;
22650;SDS011;11492;42.646;23.400;2024-02-21T07:45:10;42.08;;;22.85;;
22650;SDS011;11492;42.646;23.400;2024-02-21T07:47:36;46.65;;;22.65;;
22650;SDS011;11492;42.646;23.400;2024-02-21T07:50:02;46.33;;;24.73;;
22650;SDS011;11492;42.646;23.400;2024-02-21T07:52:28;44.75;;;24.83;;
22650;SDS011;11492;42.646;23.400;2024-02-21T07:54:54;45.80;;;25.90;;
22650;SDS011;11492;42.646;23.400;2024-02-21T07:57:20;42.70;;;23.98;;
22650;SDS011;11492;42.646;23.400;2024-02-21T07:59:47;50.60;;;25.33;;
22650;SDS011;11492;42.646;23.400;2024-02-21T08:02:16;44.30;;;25.15;;
22650;SDS011;11492;42.646;23.400;2024-02-21T08:04:42;46.10;;;26.08;;
22650;SDS011;11492;42.646;23.400;2024-02-21T08:07:08;40.75;;;24.63;;
22650;SDS011;11492;42.646;23.400;2024-02-21T08:09:34;44.85;;;25.70;;
22650;SDS011;11492;42.646;23.400;2024-02-21T08:12:01;44.65;;;26.83;;
22650;SDS011;11492;42.646;23.400;2024-02-21T08:14:27;58.13;;;27.50;;
22650;SDS011;11492;42.646;23.400;2024-02-21T08:16:54;40.58;;;23.70;;
22650;SDS011;11492;42.646;23.400;2024-02-21T08:19:20;38.75;;;23.52;;
22650;SDS011;11492;42.646;23.400;2024-02-21T08:21:46;45.17;;;21.45;;
22650;SDS011;11492;42.646;23.400;2024-02-21T08:24:14;36.70;;;21.90;;
22650;SDS011;11492;42.646;23.400;2024-02-21T08:26:40;33.28;;;19.63;;
22650;SDS011;11492;42.646;23.400;2024-02-21T08:29:12;33.67;;;19.52;;
22650;SDS011;11492;42.646;23.400;2024-02-21T08:31:38;34.53;;;18.70;;
22650;SDS011;11492;42.646;23.400;2024-02-21T08:34:03;31.23;;;19.88;;
22650;SDS011;11492;42.646;23.400;2024-02-21T08:38:59;39.17;;;20.65;;
22650;SDS011;11492;42.646;23.400;2024-02-21T08:41:25;31.00;;;19.48;;
22650;SDS011;11492;42.646;23.400;2024-02-21T08:43:52;30.48;;;18.65;;
22650;SDS011;11492;42.646;23.400;2024-02-21T08:46:22;34.83;;;20.85;;
22650;SDS011;11492;42.646;23.400;2024-02-21T08:48:49;34.70;;;21.00;;
22650;SDS011;11492;42.646;23.400;2024-02-21T08:51:16;34.70;;;20.75;;
22650;SDS011;11492;42.646;23.400;2024-02-21T08:53:43;35.15;;;21.65;;
22650;SDS011;11492;42.646;23.400;2024-02-21T08:56:09;38.85;;;18.85;;
22650;SDS011;11492;42.646;23.400;2024-02-21T08:58:39;23.45;;;15.63;;
22650;SDS011;11492;42.646;23.400;2024-02-21T09:01:05;23.17;;;14.10;;
22650;SDS011;11492;42.646;23.400;2024-02-21T09:03:35;20.63;;;13.52;;
22650;SDS011;11492;42.646;23.400;2024-02-21T09:06:02;23.35;;;13.85;;
22650;SDS011;11492;42.646;23.400;2024-02-21T09:08:29;23.92;;;14.40;;
22650;SDS011;11492;42.646;23.400;2024-02-21T09:10:55;22.00;;;14.25;;
22650;SDS011;11492;42.646;23.400;2024-02-21T09:13:20;24.98;;;13.63;;
22650;SDS011;11492;42.646;23.400;2024-02-21T09:15:47;22.73;;;13.70;;
22650;SDS011;11492;42.646;23.400;2024-02-21T09:18:14;20.35;;;13.77;;
22650;SDS011;11492;42.646;23.400;2024-02-21T09:20:40;21.30;;;12.90;;
22650;SDS011;11492;42.646;23.400;2024-02-21T09:23:06;20.83;;;13.43;;
22650;SDS011;11492;42.646;23.400;2024-02-21T09:25:31;18.95;;;13.30;;
22650;SDS011;11492;42.646;23.400;2024-02-21T09:27:57;18.75;;;13.32;;
22650;SDS011;11492;42.646;23.400;2024-02-21T09:30:23;20.77;;;12.68;;
22650;SDS011;11492;42.646;23.400;2024-02-21T09:32:49;17.88;;;12.73;;
22650;SDS011;11492;42.646;23.400;2024-02-21T09:35:15;19.00;;;12.68;;
22650;SDS011;11492;42.646;23.400;2024-02-21T09:37:41;21.10;;;13.25;;
22650;SDS011;11492;42.646;23.400;2024-02-21T09:40:07;18.90;;;12.80;;
22650;SDS011;11492;42.646;23.400;2024-02-21T09:45:07;20.10;;;13.43;;
22650;SDS011;11492;42.646;23.400;2024-02-21T09:50:21;16.50;;;11.93;;
22650;SDS011;11492;42.646;23.400;2024-02-21T09:52:50;19.48;;;12.02;;
22650;SDS011;11492;42.646;23.400;2024-02-21T09:55:17;21.38;;;12.68;;
22650;SDS011;11492;42.646;23.400;2024-02-21T09:57:44;19.70;;;12.70;;
22650;SDS011;11492;42.646;23.400;2024-02-21T10:00:10;16.65;;;12.07;;
22650;SDS011;11492;42.646;23.400;2024-02-21T10:02:38;17.80;;;11.75;;
22650;SDS011;11492;42.646;23.400;2024-02-21T10:05:04;15.13;;;11.35;;
22650;SDS011;11492;42.646;23.400;2024-02-21T10:07:33;23.77;;;11.82;;
22650;SDS011;11492;42.646;23.400;2024-02-21T10:10:02;22.33;;;13.00;;
22650;SDS011;11492;42.646;23.400;2024-02-21T10:12:28;19.60;;;12.95;;
22650;SDS011;11492;42.646;23.400;2024-02-21T10:15:01;19.98;;;12.55;;
22650;SDS011;11492;42.646;23.400;2024-02-21T10:17:31;20.67;;;12.88;;
22650;SDS011;11492;42.646;23.400;2024-02-21T10:20:10;15.38;;;11.82;;
22650;SDS011;11492;42.646;23.400;2024-02-21T10:22:37;16.77;;;12.07;;
22650;SDS011;11492;42.646;23.400;2024-02-21T10:25:14;15.18;;;10.65;;
22650;SDS011;11492;42.646;23.400;2024-02-21T10:27:39;13.50;;;9.60;;
22650;SDS011;11492;42.646;23.400;2024-02-21T10:30:13;21.05;;;10.00;;
22650;SDS011;11492;42.646;23.400;2024-02-21T10:35:27;13.05;;;10.27;;
22650;SDS011;11492;42.646;23.400;2024-02-21T10:37:56;14.82;;;10.23;;
22650;SDS011;11492;42.646;23.400;2024-02-21T10:40:26;14.48;;;10.10;;
22650;SDS011;11492;42.646;23.400;2024-02-21T10:43:01;14.88;;;10.23;;
22650;SDS011;11492;42.646;23.400;2024-02-21T10:45:31;13.98;;;9.65;;
22650;SDS011;11492;42.646;23.400;2024-02-21T10:53:53;10.43;;;7.38;;
22650;SDS011;11492;42.646;23.400;2024-02-21T10:56:21;11.32;;;7.72;;
22650;SDS011;11492;42.646;23.400;2024-02-21T10:58:52;12.40;;;7.85;;
22650;SDS011;11492;42.646;23.400;2024-02-21T11:01:20;10.70;;;8.00;;
22650;SDS011;11492;42.646;23.400;2024-02-21T11:03:47;14.77;;;7.78;;
22650;SDS011;11492;42.646;23.400;2024-02-21T11:06:15;10.68;;;7.00;;
22650;SDS011;11492;42.646;23.400;2024-02-21T11:08:43;10.38;;;6.95;;
22650;SDS011;11492;42.646;23.400;2024-02-21T11:11:11;13.93;;;7.30;;
22650;SDS011;11492;42.646;23.400;2024-02-21T11:13:44;10.52;;;8.05;;
22650;SDS011;11492;42.646;23.400;2024-02-21T11:16:11;11.00;;;7.07;;
22650;SDS011;11492;42.646;23.400;2024-02-21T11:18:46;10.30;;;7.50;;
22650;SDS011;11492;42.646;23.400;2024-02-21T11:21:12;10.45;;;6.97;;
22650;SDS011;11492;42.646;23.400;2024-02-21T11:23:38;8.63;;;6.45;;
22650;SDS011;11492;42.646;23.400;2024-02-21T11:28:33;8.43;;;5.30;;
22650;SDS011;11492;42.646;23.400;2024-02-21T11:31:12;8.52;;;4.75;;
22650;SDS011;11492;42.646;23.400;2024-02-21T11:33:56;7.30;;;5.00;;
22650;SDS011;11492;42.646;23.400;2024-02-21T11:36:26;10.35;;;5.70;;
22650;SDS011;11492;42.646;23.400;2024-02-21T11:38:53;9.10;;;6.20;;
22650;SDS011;11492;42.646;23.400;2024-02-21T11:41:19;7.65;;;4.55;;
22650;SDS011;11492;42.646;23.400;2024-02-21T11:43:46;25.00;;;16.45;;
22650;SDS011;11492;42.646;23.400;2024-02-21T11:46:14;8.25;;;4.97;;
22650;SDS011;11492;42.646;23.400;2024-02-21T11:48:40;20.50;;;13.40;;
22650;SDS011;11492;42.646;23.400;2024-02-21T11:51:09;8.25;;;5.25;;
22650;SDS011;11492;42.646;23.400;2024-02-21T11:53:36;6.65;;;4.63;;
22650;SDS011;11492;42.646;23.400;2024-02-21T11:56:02;8.70;;;4.57;;
22650;SDS011;11492;42.646;23.400;2024-02-21T11:58:27;5.93;;;3.80;;
22650;SDS011;11492;42.646;23.400;2024-02-21T12:00:54;5.72;;;4.13;;
22650;SDS011;11492;42.646;23.400;2024-02-21T12:03:20;5.88;;;4.75;;
22650;SDS011;11492;42.646;23.400;2024-02-21T12:05:46;7.68;;;4.53;;
22650;SDS011;11492;42.646;23.400;2024-02-21T12:08:12;6.82;;;4.60;;
22650;SDS011;11492;42.646;23.400;2024-02-21T12:10:37;5.80;;;4.80;;
22650;SDS011;11492;42.646;23.400;2024-02-21T12:13:06;6.95;;;4.75;;
22650;SDS011;11492;42.646;23.400;2024-02-21T12:15:35;7.00;;;4.60;;
22650;SDS011;11492;42.646;23.400;2024-02-21T12:18:01;6.30;;;4.45;;
22650;SDS011;11492;42.646;23.400;2024-02-21T12:20:26;9.45;;;5.10;;
22650;SDS011;11492;42.646;23.400;2024-02-21T12:22:52;9.18;;;4.22;;
22650;SDS011;11492;42.646;23.400;2024-02-21T12:25:20;6.93;;;4.82;;
22650;SDS011;11492;42.646;23.400;2024-02-21T12:27:52;13.30;;;5.32;;
22650;SDS011;11492;42.646;23.400;2024-02-21T12:30:18;11.65;;;4.90;;
22650;SDS011;11492;42.646;23.400;2024-02-21T12:32:45;8.38;;;5.07;;
22650;SDS011;11492;42.646;23.400;2024-02-21T12:35:11;10.23;;;4.97;;
22650;SDS011;11492;42.646;23.400;2024-02-21T12:37:36;7.75;;;5.32;;
22650;SDS011;11492;42.646;23.400;2024-02-21T12:40:04;9.25;;;5.78;;
22650;SDS011;11492;42.646;23.400;2024-02-21T12:42:32;10.18;;;6.15;;
22650;SDS011;11492;42.646;23.400;2024-02-21T12:45:01;10.35;;;5.70;;
22650;SDS011;11492;42.646;23.400;2024-02-21T12:47:29;9.35;;;6.03;;
22650;SDS011;11492;42.646;23.400;2024-02-21T12:49:54;11.43;;;6.20;;
22650;SDS011;11492;42.646;23.400;2024-02-21T12:52:21;8.80;;;5.32;;
22650;SDS011;11492;42.646;23.400;2024-02-21T12:54:46;12.88;;;5.70;;
22650;SDS011;11492;42.646;23.400;2024-02-21T12:57:12;11.35;;;5.78;;
22650;SDS011;11492;42.646;23.400;2024-02-21T12:59:38;8.07;;;5.65;;
22650;SDS011;11492;42.646;23.400;2024-02-21T13:02:04;11.70;;;5.80;;
22650;SDS011;11492;42.646;23.400;2024-02-21T13:04:29;12.13;;;6.53;;
22650;SDS011;11492;42.646;23.400;2024-02-21T13:06:55;12.65;;;6.47;;
22650;SDS011;11492;42.646;23.400;2024-02-21T13:09:21;9.50;;;5.30;;
22650;SDS011;11492;42.646;23.400;2024-02-21T13:11:46;8.20;;;5.75;;
22650;SDS011;11492;42.646;23.400;2024-02-21T13:14:12;11.90;;;5.60;;
22650;SDS011;11492;42.646;23.400;2024-02-21T13:16:38;49.28;;;28.75;;
22650;SDS011;11492;42.646;23.400;2024-02-21T13:19:06;15.98;;;7.43;;
22650;SDS011;11492;42.646;23.400;2024-02-21T13:21:35;19.33;;;9.90;;
22650;SDS011;11492;42.646;23.400;2024-02-21T13:24:01;42.65;;;24.50;;
22650;SDS011;11492;42.646;23.400;2024-02-21T13:26:27;18.90;;;8.50;;
22650;SDS011;11492;42.646;23.400;2024-02-21T13:28:53;15.45;;;9.95;;
22650;SDS011;11492;42.646;23.400;2024-02-21T13:31:19;13.43;;;8.60;;
22650;SDS011;11492;42.646;23.400;2024-02-21T13:33:46;16.38;;;7.55;;
22650;SDS011;11492;42.646;23.400;2024-02-21T13:36:11;12.43;;;7.70;;
22650;SDS011;11492;42.646;23.400;2024-02-21T13:38:37;14.20;;;7.53;;
22650;SDS011;11492;42.646;23.400;2024-02-21T13:41:06;14.20;;;7.90;;
22650;SDS011;11492;42.646;23.400;2024-02-21T13:43:32;13.70;;;7.47;;
22650;SDS011;11492;42.646;23.400;2024-02-21T13:45:59;10.77;;;6.88;;
22650;SDS011;11492;42.646;23.400;2024-02-21T13:48:30;11.70;;;7.28;;
22650;SDS011;11492;42.646;23.400;2024-02-21T13:50:58;14.90;;;7.60;;
22650;SDS011;11492;42.646;23.400;2024-02-21T13:53:23;10.10;;;6.45;;
22650;SDS011;11492;42.646;23.400;2024-02-21T13:55:49;12.07;;;7.40;;
22650;SDS011;11492;42.646;23.400;2024-02-21T13:58:15;13.10;;;7.13;;
22650;SDS011;11492;42.646;23.400;2024-02-21T14:00:42;12.75;;;6.13;;
22650;SDS011;11492;42.646;23.400;2024-02-21T14:03:08;11.88;;;6.38;;
22650;SDS011;11492;42.646;23.400;2024-02-21T14:05:34;12.98;;;6.78;;
22650;SDS011;11492;42.646;23.400;2024-02-21T14:08:00;10.52;;;6.93;;
22650;SDS011;11492;42.646;23.400;2024-02-21T14:10:26;12.20;;;6.97;;
22650;SDS011;11492;42.646;23.400;2024-02-21T14:12:51;14.35;;;6.70;;
22650;SDS011;11492;42.646;23.400;2024-02-21T14:15:17;11.13;;;6.53;;
22650;SDS011;11492;42.646;23.400;2024-02-21T14:17:43;11.02;;;6.38;;
22650;SDS011;11492;42.646;23.400;2024-02-21T14:20:08;9.40;;;6.88;;
22650;SDS011;11492;42.646;23.400;2024-02-21T14:22:34;15.85;;;6.95;;
22650;SDS011;11492;42.646;23.400;2024-02-21T14:25:03;15.48;;;6.68;;
22650;SDS011;11492;42.646;23.400;2024-02-21T14:27:32;15.57;;;6.07;;
22650;SDS011;11492;42.646;23.400;2024-02-21T14:29:58;8.48;;;5.82;;
22650;SDS011;11492;42.646;23.400;2024-02-21T14:32:23;7.68;;;5.30;;
22650;SDS011;11492;42.646;23.400;2024-02-21T14:34:49;12.93;;;6.05;;